HALF-HOURLY OBSERVATIONS INDEX

074

Riverina - east

DENILIQUIN AIRPORT AWS

Site: 074258
Alt: 94.0m
118km S of HAY


  Time     Wind        Temp  DP   Baro     Rain since   Rain past  Vis(m), Cloud(base in m), Weather
  local        km/h                         9am  last   hr   10m    
Mon 11:00    S 15/ 20  25.6 11.7  1016.3    0.0   0.0   0.0   0.0   ----- 
Mon 11:30  SSE 15/ 20  27.3 11.7  1016.3    0.0   0.0   0.0   0.0   ----- 
Mon 12:00    S 15/ 22  27.2 10.0  1016.1    0.0   0.0   0.0   0.0   ----- 
Mon 12:30    S 13/ 20  28.4  9.2  1015.8    0.0   0.0   0.0   0.0   ----- 
Mon 13:00  SSE 11/ 20  28.9  9.6  1015.4    0.0   0.0   0.0   0.0   ----- 
Mon 13:30   SW 13/ 20  29.6  6.3  1015.3    0.0   0.0   0.0   0.0   ----- 
Mon 14:00   SW 15/ 20  30.4  7.0  1015.0    0.0   0.0   0.0   0.0   ----- 
Mon 14:30    S 13/ 22  30.9 11.8  1014.7    0.0   0.0   0.0   0.0   ----- 
Mon 15:00    S 17/ 20  32.8 11.9  1014.5    0.0   0.0   0.0   0.0   ----- 
Mon 15:30  SSW 19/ 26  30.3 10.3  1014.0    0.0   0.0   0.0   0.0   ----- 
Mon 16:00    S 19/ 30  31.0 11.4  1013.7    0.0   0.0   0.0   0.0   ----- 
Mon 16:30  WSW 17/ 20  30.7 11.6  1013.4    0.0   0.0   0.0   0.0   ----- 

KAPOOKA (DEFENCE)

Site: 074272
Alt: 187.0m
10km WSW of WAGGA WAGGA


  Time     Wind        Temp  DP   Baro     Rain since   Rain past  Vis(m), Cloud(base in m), Weather
  local        km/h                         9am  last   hr   10m    
Mon 11:00   NW  4/  6  28.4 11.5  ------    0.0   0.0   0.0   0.0   ----- 
Mon 11:30  NNE  6/  9  29.9 10.5  ------    0.0   0.0   0.0   0.0   ----- 
Mon 12:00  NNW  6/ 11  30.7  9.6  ------    0.0   0.0   0.0   0.0   ----- 
Mon 12:30    S 11/ 17  32.3  3.3  ------    0.0   0.0   0.0   0.0   ----- 
Mon 13:00  WSW 11/ 20  32.9  1.9  ------    0.0   0.0   0.0   0.0   ----- 
Mon 13:30    W  6/ 15  33.1  2.1  ------    0.0   0.0   0.0   0.0   ----- 
Mon 14:00  WSW 11/ 24  33.4  3.3  ------    0.0   0.0   0.0   0.0   ----- 
Mon 14:30   SW 11/ 24  33.8  1.6  ------    0.0   0.0   0.0   0.0   ----- 
Mon 15:00   SW 11/ 22  34.3 -0.4  ------    0.0   0.0   0.0   0.0   ----- 
Mon 15:30  WSW  9/ 20  35.0  1.4  ------    0.0   0.0   0.0   0.0   ----- 
Mon 16:00  SSW 13/ 22  34.7 -0.1  ------    0.0   0.0   0.0   0.0   ----- 
Mon 16:30   SW 13/ 24  34.8  0.0  ------    0.0   0.0   0.0   0.0   ----- 

NARRANDERA AIRPORT AWS

Site: 074148
Alt: 145.0m
64km SE of GRIFFITH


  Time     Wind        Temp  DP   Baro     Rain since   Rain past  Vis(m), Cloud(base in m), Weather
  local        km/h                         9am  last   hr   10m    
Mon 11:00  WSW  6/ 11  30.8 10.7  1015.7    0.0   0.0   0.0   0.0   10000 
Mon 11:30  WSW  9/ 19  31.6  8.6  1015.6    0.0   0.0   0.0   0.0   10000 
Mon 12:00  WSW 11/ 19  32.3  5.0  1015.3    0.0   0.0   0.0   0.0   10000 
Mon 12:30   NW 11/ 20  32.7  3.6  1015.0    0.0   0.0   0.0   0.0   10000 
Mon 13:00    W 11/ 17  33.0  2.9  1014.6    0.0   0.0   0.0   0.0   10000 
Mon 13:30  WSW  9/ 15  33.9  2.7  1014.4    0.0   0.0   0.0   0.0   10000 
Mon 14:00  SSW 11/ 17  35.0  1.4  1014.1    0.0   0.0   0.0   0.0   10000 
Mon 14:30    W 13/ 24  35.0  2.5  1013.8    0.0   0.0   0.0   0.0   10000 
Mon 15:00    W 15/ 30  36.2  2.3  1013.3    0.0   0.0   0.0   0.0   10000 
Mon 15:30    W 20/ 39  34.5 -0.2  1013.0    0.0   0.0   0.0   0.0   10000 
Mon 16:00  WNW 13/ 22  35.7  0.7  1012.6    0.0   0.0   0.0   0.0   10000 
Mon 16:30   NW 15/ 24  35.4  0.5  1012.2    0.0   0.0   0.0   0.0   10000 

YANCO AGRICULTURAL INSTITUTE

Site: 074037
Alt: 164.0m
53km SE of GRIFFITH


  Time     Wind        Temp  DP   Baro     Rain since   Rain past  Vis(m), Cloud(base in m), Weather
  local        km/h                         9am  last   hr   10m    
Mon 11:00  WSW  9/ 13  29.1 10.3  ------    0.0   0.0   0.0   0.0   ----- 
Mon 11:30  WSW  7/ 13  30.8  9.1  ------    0.0   0.0   0.0   0.0   ----- 
Mon 12:00  SSW  7/ 17  31.9  6.2  ------    0.0   0.0   0.0   0.0   ----- 
Mon 12:30    W  7/ 13  32.0  6.2  ------    0.0   0.0   0.0   0.0   ----- 
Mon 13:00    W 11/ 24  32.9  4.6  ------    0.0   0.0   0.0   0.0   ----- 
Mon 13:30   SW  9/ 22  34.5  3.1  ------    0.0   0.0   0.0   0.0   ----- 
Mon 14:00  WSW 15/ 26  34.1  1.8  ------    0.0   0.0   0.0   0.0   ----- 
Mon 14:30    W 11/ 20  34.5  2.1  ------    0.0   0.0   0.0   0.0   ----- 
Mon 15:00  WNW  7/ 15  34.7  2.3  ------    0.0   0.0   0.0   0.0   ----- 
Mon 15:30  WNW 13/ 22  35.2  0.3  ------    0.0   0.0   0.0   0.0   ----- 
Mon 16:00  WNW 11/ 22  35.4  0.5  ------    0.0   0.0   0.0   0.0   ----- 
Mon 16:30  WSW 13/ 19  34.6  1.1  ------    0.0   0.0   0.0   0.0   -----